createdAt,value
2018-09-19T00:02:12.669Z,21.79
2018-09-19T00:04:43.786Z,21.75
2018-09-19T00:07:14.546Z,21.82
2018-09-19T00:09:45.470Z,21.81
2018-09-19T00:12:16.282Z,21.80
2018-09-19T00:14:47.725Z,21.84
2018-09-19T00:17:18.420Z,21.80
2018-09-19T00:19:50.297Z,21.73
2018-09-19T00:22:20.596Z,21.79
2018-09-19T00:24:51.508Z,21.82
2018-09-19T00:27:28.288Z,21.77
2018-09-19T00:29:58.269Z,21.84
2018-09-19T00:32:28.335Z,21.79
2018-09-19T00:34:58.280Z,21.67
2018-09-19T00:37:28.497Z,21.81
2018-09-19T00:39:58.213Z,21.85
2018-09-19T00:42:28.776Z,21.81
2018-09-19T00:44:59.513Z,21.84
2018-09-19T00:47:30.851Z,21.71
2018-09-19T00:50:01.573Z,21.69
2018-09-19T00:52:32.440Z,21.64
2018-09-19T00:55:03.858Z,21.61
2018-09-19T00:57:34.829Z,21.56
2018-09-19T01:00:05.799Z,21.55
2018-09-19T01:02:36.666Z,21.56
2018-09-19T01:05:08.163Z,21.58
2018-09-19T01:07:38.641Z,21.55
2018-09-19T01:10:09.385Z,21.56
2018-09-19T01:12:41.104Z,21.57
2018-09-19T01:15:11.549Z,21.47
2018-09-19T01:17:42.581Z,21.47
2018-09-19T01:20:13.387Z,21.47
2018-09-19T01:22:44.886Z,21.48
2018-09-19T01:25:15.650Z,21.48
2018-09-19T01:27:46.514Z,21.35
2018-09-19T01:30:17.626Z,21.38
2018-09-19T01:32:48.422Z,21.45
2018-09-19T01:35:19.723Z,21.38
2018-09-19T01:37:50.595Z,21.37
2018-09-19T01:40:21.463Z,21.36
2018-09-19T01:42:52.869Z,21.37
2018-09-19T01:45:23.774Z,21.35
2018-09-19T01:47:54.639Z,21.27
2018-09-19T01:50:25.422Z,21.22
2018-09-19T01:52:56.612Z,21.14
2018-09-19T01:55:26.440Z,21.14
2018-09-19T01:57:57.685Z,21.28
2018-09-19T02:00:32.497Z,21.08
2018-09-19T02:03:02.199Z,20.67
2018-09-19T02:05:32.409Z,20.50
2018-09-19T02:08:02.212Z,20.27
2018-09-19T02:10:32.618Z,20.28
2018-09-19T02:13:03.480Z,20.32
2018-09-19T02:15:34.887Z,20.22
2018-09-19T02:18:05.730Z,20.24
2018-09-19T02:20:36.639Z,20.13
2018-09-19T02:23:07.517Z,20.14
2018-09-19T02:25:38.773Z,20.03
2018-09-19T02:28:09.750Z,19.96
2018-09-19T02:30:40.416Z,19.79
2018-09-19T02:33:11.809Z,19.83
2018-09-19T02:35:42.574Z,19.71
2018-09-19T02:38:13.394Z,19.43
2018-09-19T02:40:44.885Z,19.41
2018-09-19T02:43:15.614Z,19.16
2018-09-19T02:45:46.437Z,19.18
2018-09-19T02:48:17.673Z,19.08
2018-09-19T02:50:48.484Z,19.09
2018-09-19T02:53:19.697Z,18.98
2018-09-19T02:55:50.516Z,18.96
2018-09-19T02:58:21.733Z,18.86
2018-09-19T03:00:52.521Z,18.88
2018-09-19T03:03:23.645Z,18.84
2018-09-19T03:05:54.527Z,18.70
2018-09-19T03:08:25.386Z,18.53
2018-09-19T03:10:56.769Z,18.53
2018-09-19T03:13:27.775Z,18.58
2018-09-19T03:15:58.618Z,18.65
2018-09-19T03:18:29.352Z,18.46
2018-09-19T03:21:01.411Z,18.40
2018-09-19T03:23:31.595Z,18.44
2018-09-19T03:26:02.523Z,18.54
2018-09-19T03:28:33.987Z,18.53
2018-09-19T03:31:04.809Z,18.49
2018-09-19T03:33:35.628Z,18.58
2018-09-19T03:36:06.825Z,18.32
2018-09-19T03:38:37.659Z,18.14
2018-09-19T03:41:08.324Z,18.05
2018-09-19T03:43:39.734Z,18.12
2018-09-19T03:46:10.457Z,18.41
2018-09-19T03:48:42.129Z,18.66
2018-09-19T03:51:12.648Z,18.49
2018-09-19T03:53:43.487Z,18.47
2018-09-19T03:56:14.990Z,18.44
2018-09-19T03:58:45.868Z,18.38
2018-09-19T04:01:16.577Z,18.33
2018-09-19T04:03:53.562Z,18.23
2018-09-19T04:06:23.288Z,18.13
2018-09-19T04:08:53.095Z,18.20
2018-09-19T04:11:23.027Z,18.18
2018-09-19T04:13:52.813Z,18.23
2018-09-19T04:16:22.666Z,18.27
2018-09-19T04:18:54.315Z,18.28
2018-09-19T04:21:25.207Z,18.27
2018-09-19T04:23:55.769Z,18.23
2018-09-19T04:26:26.548Z,18.24
2018-09-19T04:28:57.383Z,18.24
2018-09-19T04:31:28.816Z,18.23
2018-09-19T04:33:59.540Z,18.23
2018-09-19T04:36:29.424Z,18.23
2018-09-19T04:39:00.755Z,18.06
2018-09-19T04:41:31.716Z,17.80
2018-09-19T04:44:02.508Z,17.62
2018-09-19T04:46:33.824Z,17.69
2018-09-19T04:49:05.035Z,17.57
2018-09-19T04:51:35.918Z,17.43
2018-09-19T04:54:06.664Z,17.18
2018-09-19T04:56:38.094Z,17.34
2018-09-19T04:59:08.675Z,17.31
2018-09-19T05:01:39.574Z,17.30
2018-09-19T05:04:10.497Z,17.31
2018-09-19T05:06:41.914Z,17.22
2018-09-19T05:09:12.736Z,17.25
2018-09-19T05:11:43.630Z,17.19
2018-09-19T05:14:16.300Z,17.31
2018-09-19T05:16:46.181Z,17.38
2018-09-19T05:19:16.769Z,17.48
2018-09-19T05:21:47.641Z,17.60
2018-09-19T05:24:18.410Z,17.59
2018-09-19T05:26:50.407Z,17.67
2018-09-19T05:29:20.736Z,17.85
2018-09-19T05:31:51.312Z,18.29
2018-09-19T05:34:22.019Z,18.66
2018-09-19T05:36:52.713Z,18.95
2018-09-19T05:39:23.465Z,19.15
2018-09-19T05:41:54.928Z,19.38
2018-09-19T05:44:25.664Z,19.40
2018-09-19T05:46:56.522Z,19.28
2018-09-19T05:49:28.065Z,19.31
2018-09-19T05:51:59.069Z,19.50
2018-09-19T05:54:29.760Z,19.72
2018-09-19T05:57:00.682Z,19.83
2018-09-19T05:59:31.695Z,19.62
2018-09-19T06:02:02.978Z,19.45
2018-09-19T06:04:33.702Z,19.24
2018-09-19T06:07:04.837Z,19.02
2018-09-19T06:09:35.645Z,19.12
2018-09-19T06:12:06.544Z,19.42
2018-09-19T06:14:37.507Z,19.66
2018-09-19T06:17:08.737Z,19.86
2018-09-19T06:19:39.780Z,19.99
2018-09-19T06:22:10.828Z,20.11
2018-09-19T06:24:41.725Z,20.24
2018-09-19T06:27:12.762Z,20.43
2018-09-19T06:29:43.739Z,20.38
2018-09-19T06:32:14.583Z,20.23
2018-09-19T06:34:45.904Z,20.09
2018-09-19T06:37:16.731Z,19.98
2018-09-19T06:39:48.695Z,19.97
2018-09-19T06:42:18.527Z,20.04
2018-09-19T06:44:49.651Z,20.09
2018-09-19T06:47:20.552Z,20.15
2018-09-19T06:49:51.605Z,20.28
2018-09-19T06:52:22.632Z,20.36
2018-09-19T06:54:53.905Z,20.43
2018-09-19T06:57:24.753Z,20.52
2018-09-19T06:59:55.907Z,20.58
2018-09-19T07:02:26.698Z,20.68
2018-09-19T07:04:57.629Z,20.81
2018-09-19T07:07:28.576Z,20.90
2018-09-19T07:10:05.588Z,20.98
2018-09-19T07:12:35.424Z,21.12
2018-09-19T07:15:05.493Z,21.19
2018-09-19T07:17:35.367Z,21.27
2018-09-19T07:20:05.479Z,21.38
2018-09-19T07:22:35.657Z,21.51
2018-09-19T07:25:05.621Z,21.70
2018-09-19T07:27:36.799Z,21.82
2018-09-19T07:30:08.013Z,21.91
2018-09-19T07:32:38.881Z,21.97
2018-09-19T07:35:09.976Z,22.10
2018-09-19T07:37:40.738Z,22.30
2018-09-19T07:40:11.698Z,22.44
2018-09-19T07:42:43.740Z,22.66
2018-09-19T07:45:13.764Z,22.83
2018-09-19T07:47:44.584Z,22.94
2018-09-19T07:50:15.582Z,23.05
2018-09-19T07:52:46.408Z,23.11
2018-09-19T07:55:18.323Z,23.23
2018-09-19T07:57:49.003Z,23.36
2018-09-19T08:00:19.946Z,23.48
2018-09-19T08:02:50.782Z,23.59
2018-09-19T08:05:22.056Z,23.67
2018-09-19T08:07:52.701Z,23.76
2018-09-19T08:10:23.810Z,23.89
2018-09-19T08:12:54.641Z,24.03
2018-09-19T08:15:25.544Z,24.15
2018-09-19T08:17:56.526Z,24.24
2018-09-19T08:20:27.739Z,24.32
2018-09-19T08:22:58.654Z,24.48
2018-09-19T08:25:29.473Z,24.65
2018-09-19T08:28:00.506Z,24.79
2018-09-19T08:30:31.775Z,24.97
2018-09-19T08:33:02.865Z,25.09
2018-09-19T08:35:33.728Z,25.17
2018-09-19T08:38:04.654Z,25.32
2018-09-19T08:40:35.432Z,25.44
2018-09-19T08:43:06.798Z,25.56
2018-09-19T08:45:37.597Z,25.70
2018-09-19T08:48:08.661Z,25.84
2018-09-19T08:50:39.585Z,25.97
2018-09-19T08:53:13.276Z,26.10
2018-09-19T08:55:43.602Z,26.21
2018-09-19T08:58:13.438Z,26.32
2018-09-19T09:00:45.659Z,26.40
2018-09-19T09:03:15.553Z,26.58
2018-09-19T09:05:45.500Z,26.70
2018-09-19T09:08:16.565Z,26.79
2018-09-19T09:10:47.472Z,26.91
2018-09-19T09:13:18.517Z,27.10
2018-09-19T09:15:49.446Z,27.26
2018-09-19T09:18:20.898Z,27.37
2018-09-19T09:20:51.736Z,27.41
2018-09-19T09:23:22.648Z,27.37
2018-09-19T09:25:53.544Z,27.42
2018-09-19T09:28:24.657Z,27.51
2018-09-19T09:30:55.554Z,27.61
2018-09-19T09:33:26.553Z,27.71
2018-09-19T09:35:57.505Z,27.78
2018-09-19T09:38:28.517Z,27.92
2018-09-19T09:40:59.775Z,28.00
2018-09-19T09:43:30.747Z,28.07
2018-09-19T09:46:01.617Z,28.16
2018-09-19T09:48:32.998Z,28.20
2018-09-19T09:51:03.697Z,28.24
2018-09-19T09:53:34.689Z,28.30
2018-09-19T09:56:05.762Z,28.36
2018-09-19T09:58:36.627Z,28.42
2018-09-19T10:01:07.642Z,28.41
2018-09-19T10:03:38.555Z,28.55
2018-09-19T10:06:09.449Z,28.65
2018-09-19T10:08:41.087Z,28.76
2018-09-19T10:11:11.681Z,28.91
2018-09-19T10:13:42.635Z,28.99
2018-09-19T10:16:13.687Z,29.13
2018-09-19T10:18:44.649Z,29.27
2018-09-19T10:21:15.676Z,29.36
2018-09-19T10:23:46.860Z,29.46
2018-09-19T10:26:17.719Z,29.40
2018-09-19T10:28:49.805Z,29.46
2018-09-19T10:31:19.616Z,29.61
2018-09-19T10:33:49.501Z,29.89
2018-09-19T10:36:20.865Z,29.95
2018-09-19T10:38:51.881Z,30.18
2018-09-19T10:41:23.696Z,30.54
2018-09-19T10:43:53.772Z,30.60
2018-09-19T10:46:28.562Z,30.64
2018-09-19T10:48:58.525Z,30.77
2018-09-19T10:51:28.434Z,30.80
2018-09-19T10:53:58.205Z,31.10
2018-09-19T10:56:28.786Z,31.19
2018-09-19T10:58:59.662Z,31.09
2018-09-19T11:01:30.583Z,31.19
2018-09-19T11:04:01.788Z,31.34
2018-09-19T11:06:32.639Z,31.65
2018-09-19T11:09:04.263Z,32.02
2018-09-19T11:11:34.806Z,32.20
2018-09-19T11:14:05.735Z,32.36
2018-09-19T11:16:36.546Z,32.50
2018-09-19T11:19:07.622Z,32.56
2018-09-19T11:21:40.121Z,32.74
2018-09-19T11:24:10.141Z,32.88
2018-09-19T11:26:40.708Z,32.99
2018-09-19T11:29:11.613Z,33.05
2018-09-19T11:31:42.130Z,33.21
2018-09-19T11:34:12.794Z,33.30
2018-09-19T11:36:43.699Z,33.38
2018-09-19T11:39:14.316Z,33.48
2018-09-19T11:41:44.732Z,33.63
2018-09-19T11:44:15.742Z,33.77
2018-09-19T11:46:46.536Z,34.00
2018-09-19T11:49:17.733Z,33.87
2018-09-19T11:51:48.567Z,33.86
2018-09-19T11:54:19.611Z,33.97
2018-09-19T11:56:50.579Z,33.87
2018-09-19T11:59:21.595Z,33.94
2018-09-19T12:01:52.621Z,34.00
2018-09-19T12:04:23.645Z,34.15
2018-09-19T12:06:54.500Z,34.21
2018-09-19T12:09:25.933Z,34.36
2018-09-19T12:11:56.777Z,34.41
2018-09-19T12:14:28.144Z,34.39
2018-09-19T12:16:59.136Z,34.31
2018-09-19T12:19:32.170Z,34.31
2018-09-19T12:22:02.370Z,34.41
2018-09-19T12:24:32.419Z,34.66
2018-09-19T12:27:02.867Z,34.93
2018-09-19T12:29:34.015Z,35.12
2018-09-19T12:32:04.740Z,35.25
2018-09-19T12:34:34.728Z,35.25
2018-09-19T12:37:05.671Z,35.38
2018-09-19T12:39:36.684Z,35.19
2018-09-19T12:42:07.766Z,35.30
2018-09-19T12:44:38.758Z,35.32
2018-09-19T12:47:09.525Z,35.20
2018-09-19T12:49:40.784Z,35.26
2018-09-19T12:52:11.592Z,35.26
2018-09-19T12:54:42.861Z,35.36
2018-09-19T12:57:13.655Z,35.36
2018-09-19T12:59:44.606Z,35.46
2018-09-19T13:02:15.715Z,35.57
2018-09-19T13:04:46.546Z,35.57
2018-09-19T13:07:17.810Z,35.35
2018-09-19T13:09:48.648Z,35.41
2018-09-19T13:12:22.845Z,35.50
2018-09-19T13:14:52.958Z,35.60
2018-09-19T13:17:22.855Z,35.73
2018-09-19T13:19:52.957Z,35.44
2018-09-19T13:22:23.993Z,35.38
2018-09-19T13:24:54.748Z,35.09
2018-09-19T13:27:25.855Z,35.18
2018-09-19T13:29:55.858Z,35.38
2018-09-19T13:32:26.753Z,35.22
2018-09-19T13:34:57.730Z,35.22
2018-09-19T13:37:28.688Z,35.36
2018-09-19T13:39:59.679Z,35.55
2018-09-19T13:42:30.580Z,35.49
2018-09-19T13:45:01.861Z,35.55
2018-09-19T13:47:33.184Z,35.52
2018-09-19T13:50:16.801Z,35.51
2018-09-19T13:52:46.801Z,35.49
2018-09-19T13:55:17.330Z,35.44
2018-09-19T13:57:47.372Z,35.53
2018-09-19T14:00:17.219Z,35.65
2018-09-19T14:02:47.433Z,35.68
2018-09-19T14:05:17.371Z,35.64
2018-09-19T14:07:47.398Z,35.59
2018-09-19T14:10:17.378Z,35.69
2018-09-19T14:12:47.199Z,35.80
2018-09-19T14:15:17.640Z,35.85
2018-09-19T14:17:47.534Z,35.98
2018-09-19T14:20:17.390Z,35.88
2018-09-19T14:22:47.493Z,35.82
2018-09-19T14:25:17.441Z,35.83
2018-09-19T14:27:48.618Z,35.82
2018-09-19T14:30:19.505Z,35.90
2018-09-19T14:32:50.538Z,35.91
2018-09-19T14:35:21.910Z,35.97
2018-09-19T14:37:52.730Z,35.97
2018-09-19T14:40:23.754Z,35.83
2018-09-19T14:42:54.708Z,35.52
2018-09-19T14:45:25.587Z,35.52
2018-09-19T14:47:56.556Z,35.32
2018-09-19T14:50:27.423Z,35.32
2018-09-19T14:52:58.817Z,35.10
2018-09-19T14:55:29.825Z,34.92
2018-09-19T14:58:01.294Z,34.71
2018-09-19T15:00:31.870Z,34.62
2018-09-19T15:03:02.863Z,34.58
2018-09-19T15:05:33.889Z,34.51
2018-09-19T15:08:04.801Z,34.58
2018-09-19T15:10:35.656Z,34.63
2018-09-19T15:13:06.605Z,34.57
2018-09-19T15:15:37.781Z,34.55
2018-09-19T15:18:08.848Z,34.53
2018-09-19T15:20:39.664Z,34.29
2018-09-19T15:23:10.575Z,34.21
2018-09-19T15:25:41.404Z,34.06
2018-09-19T15:28:12.886Z,33.82
2018-09-19T15:30:43.886Z,33.65
2018-09-19T15:33:14.895Z,33.60
2018-09-19T15:35:45.769Z,33.54
2018-09-19T15:38:16.743Z,33.43
2018-09-19T15:40:47.566Z,33.36
2018-09-19T15:43:18.530Z,33.26
2018-09-19T15:45:49.974Z,33.14
2018-09-19T15:48:20.805Z,33.01
2018-09-19T15:50:51.812Z,32.81
2018-09-19T15:53:23.621Z,32.70
2018-09-19T15:55:53.591Z,32.63
2018-09-19T15:58:24.684Z,32.54
2018-09-19T16:00:55.552Z,32.49
2018-09-19T16:03:27.437Z,32.44
2018-09-19T16:05:57.974Z,32.31
2018-09-19T16:08:29.009Z,32.18
2018-09-19T16:10:59.704Z,32.04
2018-09-19T16:13:30.638Z,31.86
2018-09-19T16:16:01.497Z,31.73
2018-09-19T16:18:32.582Z,31.55
2018-09-19T16:21:03.445Z,31.39
2018-09-19T16:23:34.639Z,31.30
2018-09-19T16:26:11.182Z,31.20
2018-09-19T16:28:41.310Z,31.11
2018-09-19T16:31:11.554Z,31.06
2018-09-19T16:33:41.460Z,31.00
2018-09-19T16:36:11.440Z,30.96
2018-09-19T16:38:41.346Z,30.92
2018-09-19T16:41:12.085Z,30.85
2018-09-19T16:43:42.765Z,30.78
2018-09-19T16:46:13.936Z,30.68
2018-09-19T16:48:44.792Z,30.50
2018-09-19T16:51:15.691Z,30.33
2018-09-19T16:53:46.656Z,30.15
2018-09-19T16:56:19.496Z,29.96
2018-09-19T16:58:49.635Z,29.81
2018-09-19T17:01:19.702Z,29.64
2018-09-19T17:03:51.463Z,29.44
2018-09-19T17:06:22.321Z,29.28
2018-09-19T17:08:53.019Z,29.16
2018-09-19T17:11:24.099Z,29.04
2018-09-19T17:13:54.794Z,28.93
2018-09-19T17:16:25.723Z,28.83
2018-09-19T17:18:56.535Z,28.64
2018-09-19T17:21:27.646Z,28.53
2018-09-19T17:23:59.099Z,28.45
2018-09-19T17:26:30.937Z,28.33
2018-09-19T17:29:01.038Z,28.23
2018-09-19T17:31:31.239Z,28.08
2018-09-19T17:34:01.958Z,27.93
2018-09-19T17:36:32.865Z,27.88
2018-09-19T17:39:05.216Z,27.73
2018-09-19T17:41:35.075Z,27.61
2018-09-19T17:44:05.902Z,27.50
2018-09-19T17:46:37.262Z,27.43
2018-09-19T17:49:07.832Z,27.34
2018-09-19T17:51:38.925Z,27.23
2018-09-19T17:54:09.715Z,27.08
2018-09-19T17:56:40.691Z,26.97
2018-09-19T17:59:12.704Z,26.90
2018-09-19T18:01:42.783Z,26.82
2018-09-19T18:04:15.028Z,26.77
2018-09-19T18:06:44.966Z,26.61
2018-09-19T18:09:15.970Z,26.56
2018-09-19T18:11:46.976Z,26.51
2018-09-19T18:14:17.818Z,26.48
2018-09-19T18:16:48.703Z,26.41
2018-09-19T18:19:19.763Z,26.35
2018-09-19T18:21:51.435Z,26.27
2018-09-19T18:24:21.990Z,26.18
2018-09-19T18:26:52.955Z,26.05
2018-09-19T18:29:23.910Z,25.99
2018-09-19T18:31:54.242Z,25.95
2018-09-19T18:34:25.400Z,25.86
2018-09-19T18:36:56.219Z,25.87
2018-09-19T18:39:26.865Z,25.83
2018-09-19T18:41:58.139Z,25.78
2018-09-19T18:44:28.769Z,25.72
2018-09-19T18:46:59.899Z,25.68
2018-09-19T18:49:31.329Z,25.67
2018-09-19T18:52:02.091Z,25.62
2018-09-19T18:54:33.747Z,25.63
2018-09-19T18:57:03.768Z,25.57
2018-09-19T18:59:34.709Z,25.49
2018-09-19T19:02:08.560Z,25.42
2018-09-19T19:04:40.685Z,25.37
2018-09-19T19:07:10.821Z,25.32
2018-09-19T19:09:41.024Z,25.30
2018-09-19T19:12:10.873Z,25.27
2018-09-19T19:14:40.794Z,25.21
2018-09-19T19:17:11.758Z,25.17
2018-09-19T19:19:42.747Z,25.11
2018-09-19T19:22:14.537Z,25.03
2018-09-19T19:24:44.956Z,24.94
2018-09-19T19:27:15.902Z,24.87
2018-09-19T19:29:46.907Z,24.84
2018-09-19T19:32:18.017Z,24.79
2018-09-19T19:34:48.807Z,24.78
2018-09-19T19:37:19.733Z,24.75
2018-09-19T19:39:50.750Z,24.69
2018-09-19T19:42:21.621Z,24.57
2018-09-19T19:44:52.944Z,24.54
2018-09-19T19:47:24.359Z,24.51
2018-09-19T19:49:55.053Z,24.48
2018-09-19T19:52:25.866Z,24.44
2018-09-19T19:54:57.870Z,24.41
2018-09-19T19:57:27.936Z,24.33
2018-09-19T19:59:58.952Z,24.28
2018-09-19T20:02:29.793Z,24.24
2018-09-19T20:05:01.023Z,24.22
2018-09-19T20:07:31.691Z,24.19
2018-09-19T20:10:02.721Z,24.13
2018-09-19T20:12:33.579Z,24.05
2018-09-19T20:15:04.708Z,24.00
2018-09-19T20:17:35.526Z,23.98
2018-09-19T20:20:07.143Z,23.92
2018-09-19T20:22:36.960Z,23.92
2018-09-19T20:25:08.073Z,23.91
2018-09-19T20:27:39.220Z,23.89
2018-09-19T20:30:09.989Z,23.86
2018-09-19T20:32:40.850Z,23.87
2018-09-19T20:35:11.915Z,23.85
2018-09-19T20:37:42.874Z,23.78
2018-09-19T20:40:13.920Z,23.72
2018-09-19T20:42:44.925Z,22.97
2018-09-19T20:45:15.621Z,22.49
2018-09-19T20:47:46.468Z,22.59
2018-09-19T20:50:17.793Z,22.66
2018-09-19T20:52:48.726Z,22.63
2018-09-19T20:55:19.578Z,22.58
2018-09-19T20:57:50.934Z,22.54
2018-09-19T21:00:21.745Z,22.48
2018-09-19T21:02:52.690Z,22.62
2018-09-19T21:05:23.642Z,22.56
2018-09-19T21:07:54.846Z,22.45
2018-09-19T21:10:25.687Z,22.36
2018-09-19T21:12:56.604Z,22.32
2018-09-19T21:15:27.698Z,22.27
2018-09-19T21:17:58.634Z,22.23
2018-09-19T21:20:29.537Z,22.17
2018-09-19T21:23:00.581Z,22.08
2018-09-19T21:25:31.833Z,22.04
2018-09-19T21:28:02.811Z,21.98
2018-09-19T21:30:33.822Z,21.94
2018-09-19T21:33:04.807Z,21.88
2018-09-19T21:35:36.630Z,21.84
2018-09-19T21:38:06.622Z,21.81
2018-09-19T21:40:37.504Z,21.77
2018-09-19T21:43:08.946Z,21.72
2018-09-19T21:45:39.698Z,21.70
2018-09-19T21:48:10.633Z,21.65
2018-09-19T21:50:41.506Z,21.59
2018-09-19T21:53:12.983Z,21.58
2018-09-19T21:55:43.674Z,21.53
2018-09-19T21:58:14.625Z,21.50
2018-09-19T22:00:50.028Z,21.45
2018-09-19T22:03:20.631Z,21.41
2018-09-19T22:05:50.625Z,21.38
2018-09-19T22:08:20.492Z,21.33
2018-09-19T22:10:50.420Z,21.29
2018-09-19T22:13:20.907Z,21.27
2018-09-19T22:15:51.805Z,21.24
2018-09-19T22:18:22.634Z,21.19
2018-09-19T22:20:53.508Z,21.15
2018-09-19T22:23:24.818Z,21.09
2018-09-19T22:25:55.922Z,20.98
2018-09-19T22:28:26.849Z,21.08
2018-09-19T22:30:57.785Z,20.94
2018-09-19T22:33:28.754Z,20.87
2018-09-19T22:35:59.707Z,20.76
2018-09-19T22:38:30.613Z,20.75
2018-09-19T22:41:01.650Z,20.73
2018-09-19T22:43:32.581Z,20.70
2018-09-19T22:46:04.565Z,20.67
2018-09-19T22:48:34.664Z,20.65
2018-09-19T22:51:05.554Z,20.64
2018-09-19T22:53:37.096Z,20.64
2018-09-19T22:56:07.897Z,20.61
2018-09-19T22:58:38.751Z,20.57
2018-09-19T23:01:09.634Z,20.54
2018-09-19T23:03:40.605Z,20.51
2018-09-19T23:06:11.563Z,20.46
2018-09-19T23:08:42.830Z,20.42
2018-09-19T23:11:14.034Z,20.40
2018-09-19T23:13:44.854Z,20.38
2018-09-19T23:16:15.747Z,20.35
2018-09-19T23:18:46.796Z,20.32
2018-09-19T23:21:17.615Z,20.29
2018-09-19T23:23:48.546Z,20.26
2018-09-19T23:26:19.742Z,20.23
2018-09-19T23:28:50.722Z,20.17
2018-09-19T23:31:21.250Z,20.14
2018-09-19T23:33:52.018Z,20.09
2018-09-19T23:36:22.672Z,20.10
2018-09-19T23:38:53.770Z,20.06
2018-09-19T23:41:30.451Z,20.03
2018-09-19T23:44:00.477Z,20.00
2018-09-19T23:46:30.318Z,19.94
2018-09-19T23:49:00.744Z,19.90
2018-09-19T23:51:30.573Z,19.88
2018-09-19T23:54:00.410Z,19.86
2018-09-19T23:56:31.069Z,19.82
2018-09-19T23:59:02.056Z,19.79
